createdAt,value
2022-10-13T00:01:14.654Z,94788.06
2022-10-13T00:03:42.179Z,94790.44
2022-10-13T00:06:10.941Z,94779.38
2022-10-13T00:08:38.180Z,94787.50
2022-10-13T00:11:20.433Z,94781.28
2022-10-13T00:13:48.475Z,94789.69
2022-10-13T00:16:17.964Z,94784.34
2022-10-13T00:18:44.463Z,94787.44
2022-10-13T00:21:14.341Z,94794.97
2022-10-13T00:23:41.627Z,94792.91
2022-10-13T00:26:10.174Z,94804.44
2022-10-13T00:28:37.796Z,94800.28
2022-10-13T00:31:13.880Z,94801.31
2022-10-13T00:33:40.241Z,94796.09
2022-10-13T00:36:06.728Z,94808.66
2022-10-13T00:38:33.387Z,94804.50
2022-10-13T00:40:59.930Z,94807.13
2022-10-13T00:43:47.222Z,94804.00
2022-10-13T00:46:14.441Z,94811.41
2022-10-13T00:48:43.156Z,94805.47
2022-10-13T00:51:12.020Z,94812.09
2022-10-13T00:53:39.684Z,94801.66
2022-10-13T00:56:09.745Z,94807.47
2022-10-13T00:58:38.339Z,94805.91
2022-10-13T01:01:06.713Z,94807.25
2022-10-13T01:03:33.693Z,94805.69
2022-10-13T01:06:02.456Z,94804.16
2022-10-13T01:08:30.092Z,94806.22
2022-10-13T01:11:05.268Z,94797.69
2022-10-13T01:13:42.593Z,94793.63
2022-10-13T01:16:44.052Z,94796.59
2022-10-13T01:19:42.765Z,94799.59
2022-10-13T01:22:28.372Z,94785.59
2022-10-13T01:25:31.138Z,94788.25
2022-10-13T01:28:41.010Z,94785.69
2022-10-13T01:31:20.629Z,94786.00
2022-10-13T01:34:03.648Z,94779.47
2022-10-13T01:36:50.433Z,94784.25
2022-10-13T01:39:56.276Z,94779.09
2022-10-13T01:42:28.468Z,94775.47
2022-10-13T01:45:01.638Z,94770.03
2022-10-13T01:47:31.323Z,94769.53
2022-10-13T01:49:58.548Z,94765.59
2022-10-13T01:52:32.184Z,94762.97
2022-10-13T01:55:09.375Z,94765.50
2022-10-13T01:57:37.540Z,94762.34
2022-10-13T02:00:09.080Z,94765.50
2022-10-13T02:03:04.888Z,94762.44
2022-10-13T02:05:49.024Z,94759.34
2022-10-13T02:08:24.437Z,94765.88
2022-10-13T02:10:55.466Z,94757.81
2022-10-13T02:13:27.492Z,94756.78
2022-10-13T02:15:56.781Z,94756.78
2022-10-13T02:18:35.056Z,94763.50
2022-10-13T02:21:03.281Z,94750.97
2022-10-13T02:23:30.266Z,94744.19
2022-10-13T02:25:59.376Z,94749.31
2022-10-13T02:28:26.806Z,94742.25
2022-10-13T02:30:53.258Z,94750.25
2022-10-13T02:33:19.680Z,94734.91
2022-10-13T02:35:46.034Z,94735.16
2022-10-13T02:38:12.723Z,94744.22
2022-10-13T02:40:39.184Z,94737.69
2022-10-13T02:43:05.686Z,94753.31
2022-10-13T02:45:32.301Z,94738.50
2022-10-13T02:47:58.694Z,94749.22
2022-10-13T02:50:25.111Z,94747.66
2022-10-13T02:52:53.014Z,94752.44
2022-10-13T02:55:19.419Z,94742.59
2022-10-13T02:57:47.540Z,94749.94
2022-10-13T03:00:14.768Z,94744.75
2022-10-13T03:02:41.716Z,94748.41
2022-10-13T03:05:09.026Z,94751.06
2022-10-13T03:07:36.054Z,94753.16
2022-10-13T03:10:02.661Z,94745.69
2022-10-13T03:12:29.016Z,94761.81
2022-10-13T03:14:55.411Z,94757.44
2022-10-13T03:17:21.817Z,94758.22
2022-10-13T03:19:48.315Z,94751.25
2022-10-13T03:22:18.190Z,94751.25
2022-10-13T03:24:45.095Z,94760.56
2022-10-13T03:27:11.547Z,94769.44
2022-10-13T03:29:37.959Z,94764.47
2022-10-13T03:32:04.736Z,94777.97
2022-10-13T03:34:31.199Z,94774.53
2022-10-13T03:36:57.802Z,94774.00
2022-10-13T03:39:24.250Z,94763.56
2022-10-13T03:41:50.681Z,94770.03
2022-10-13T03:44:17.047Z,94770.25
2022-10-13T03:46:43.510Z,94769.25
2022-10-13T03:49:11.739Z,94771.88
2022-10-13T03:51:38.786Z,94764.84
2022-10-13T03:54:05.406Z,94768.72
2022-10-13T03:56:31.792Z,94767.94
2022-10-13T03:59:00.081Z,94765.88
2022-10-13T04:01:29.368Z,94763.50
2022-10-13T04:03:56.661Z,94758.28
2022-10-13T04:06:24.427Z,94754.41
2022-10-13T04:08:51.619Z,94756.47
2022-10-13T04:11:19.239Z,94754.06
2022-10-13T04:13:50.532Z,94748.31
2022-10-13T04:16:20.255Z,94743.34
2022-10-13T04:18:57.822Z,94741.50
2022-10-13T04:21:25.681Z,94742.00
2022-10-13T04:23:57.158Z,94742.22
2022-10-13T04:26:25.008Z,94734.91
2022-10-13T04:28:53.018Z,94738.28
2022-10-13T04:31:23.303Z,94740.38
2022-10-13T04:33:50.842Z,94737.78
2022-10-13T04:36:18.429Z,94735.16
2022-10-13T04:38:46.597Z,94739.34
2022-10-13T04:41:14.991Z,94734.13
2022-10-13T04:43:41.954Z,94733.63
2022-10-13T04:46:23.225Z,94740.44
2022-10-13T04:48:51.559Z,94722.25
2022-10-13T04:51:22.557Z,94734.69
2022-10-13T04:53:49.393Z,94730.00
2022-10-13T04:56:17.638Z,94732.84
2022-10-13T04:58:46.018Z,94732.56
2022-10-13T05:01:21.883Z,94731.81
2022-10-13T05:03:57.438Z,94731.56
2022-10-13T05:06:26.853Z,94724.59
2022-10-13T05:08:55.980Z,94725.91
2022-10-13T05:11:24.132Z,94733.47
2022-10-13T05:13:50.778Z,94723.81
2022-10-13T05:16:18.407Z,94732.69
2022-10-13T05:18:45.432Z,94731.13
2022-10-13T05:21:14.466Z,94739.72
2022-10-13T05:23:41.824Z,94743.09
2022-10-13T05:26:11.412Z,94740.72
2022-10-13T05:28:38.250Z,94745.38
2022-10-13T05:31:18.799Z,94734.41
2022-10-13T05:33:45.990Z,94739.34
2022-10-13T05:36:19.287Z,94734.63
2022-10-13T05:38:49.351Z,94729.69
2022-10-13T05:41:15.734Z,94735.88
2022-10-13T05:43:42.889Z,94740.84
2022-10-13T05:46:09.713Z,94731.19
2022-10-13T05:48:37.274Z,94724.72
2022-10-13T05:51:09.443Z,94733.50
2022-10-13T05:53:40.226Z,94728.84
2022-10-13T05:56:13.748Z,94730.91
2022-10-13T05:58:45.791Z,94725.69
2022-10-13T06:01:17.280Z,94727.25
2022-10-13T06:03:46.424Z,94724.59
2022-10-13T06:06:12.817Z,94730.03
2022-10-13T06:08:39.440Z,94738.06
2022-10-13T06:11:06.977Z,94731.31
2022-10-13T06:13:33.751Z,94727.38
2022-10-13T06:16:00.361Z,94719.25
2022-10-13T06:18:26.762Z,94715.31
2022-10-13T06:20:53.141Z,94710.63
2022-10-13T06:23:19.612Z,94717.59
2022-10-13T06:25:53.014Z,94717.81
2022-10-13T06:28:20.780Z,94725.84
2022-10-13T06:30:53.273Z,94718.00
2022-10-13T06:33:22.263Z,94732.53
2022-10-13T06:35:48.794Z,94729.38
2022-10-13T06:38:15.160Z,94727.25
2022-10-13T06:40:42.174Z,94724.66
2022-10-13T06:43:08.595Z,94732.94
2022-10-13T06:45:40.670Z,94729.41
2022-10-13T06:48:07.090Z,94724.66
2022-10-13T06:50:33.596Z,94721.97
2022-10-13T06:53:00.094Z,94720.84
2022-10-13T06:55:26.856Z,94718.22
2022-10-13T06:57:53.254Z,94719.69
2022-10-13T07:00:19.958Z,94719.91
2022-10-13T07:02:50.446Z,94712.56
2022-10-13T07:05:16.978Z,94721.09
2022-10-13T07:07:43.556Z,94710.38
2022-10-13T07:10:10.086Z,94710.31
2022-10-13T07:12:36.452Z,94717.00
2022-10-13T07:15:03.011Z,94718.28
2022-10-13T07:17:29.550Z,94737.59
2022-10-13T07:19:57.965Z,94736.81
2022-10-13T07:22:24.806Z,94724.84
2022-10-13T07:24:51.181Z,94727.94
2022-10-13T07:27:19.438Z,94723.28
2022-10-13T07:29:45.954Z,94728.50
2022-10-13T07:32:12.335Z,94726.38
2022-10-13T07:34:38.769Z,94720.88
2022-10-13T07:37:05.125Z,94724.97
2022-10-13T07:39:31.859Z,94717.63
2022-10-13T07:41:58.245Z,94723.06
2022-10-13T07:44:24.728Z,94724.59
2022-10-13T07:46:51.098Z,94716.97
2022-10-13T07:49:17.769Z,94721.84
2022-10-13T07:51:44.421Z,94726.50
2022-10-13T07:54:11.092Z,94724.63
2022-10-13T07:56:38.279Z,94723.88
2022-10-13T07:59:05.293Z,94719.72
2022-10-13T08:01:32.172Z,94712.09
2022-10-13T08:03:59.146Z,94716.91
2022-10-13T08:06:25.801Z,94713.66
2022-10-13T08:08:54.244Z,94716.69
2022-10-13T08:11:20.747Z,94714.19
2022-10-13T08:13:51.203Z,94708.75
2022-10-13T08:16:20.500Z,94712.31
2022-10-13T08:18:49.225Z,94713.78
2022-10-13T08:24:15.546Z,94705.84
2022-10-13T08:26:43.359Z,94717.06
2022-10-13T08:29:21.486Z,94704.31
2022-10-13T08:34:24.708Z,94715.16
2022-10-13T08:36:54.203Z,94709.53
2022-10-13T08:39:22.831Z,94707.41
2022-10-13T08:41:49.603Z,94704.22
2022-10-13T08:47:46.797Z,94706.34
2022-10-13T08:50:17.636Z,94721.03
2022-10-13T08:52:52.583Z,94712.81
2022-10-13T08:55:38.275Z,94702.72
2022-10-13T08:58:14.652Z,94704.28
2022-10-13T09:00:41.652Z,94704.09
2022-10-13T09:03:29.062Z,94718.72
2022-10-13T09:06:02.855Z,94712.41
2022-10-13T09:08:36.237Z,94717.38
2022-10-13T09:11:02.822Z,94714.56
2022-10-13T09:13:29.199Z,94710.91
2022-10-13T09:15:57.974Z,94711.22
2022-10-13T09:18:30.588Z,94702.19
2022-10-13T09:21:24.145Z,94707.41
2022-10-13T09:23:53.856Z,94704.50
2022-10-13T09:26:23.728Z,94699.84
2022-10-13T09:28:51.483Z,94702.34
2022-10-13T09:31:18.072Z,94696.34
2022-10-13T09:33:45.672Z,94693.63
2022-10-13T09:36:16.193Z,94680.72
2022-10-13T09:39:07.542Z,94680.00
2022-10-13T09:41:36.066Z,94685.13
2022-10-13T09:44:32.044Z,94682.47
2022-10-13T09:47:01.973Z,94682.84
2022-10-13T09:50:03.305Z,94684.44
2022-10-13T09:52:34.665Z,94680.81
2022-10-13T09:55:01.571Z,94683.13
2022-10-13T09:57:34.253Z,94680.38
2022-10-13T10:00:22.069Z,94681.63
2022-10-13T10:03:18.842Z,94678.44
2022-10-13T10:05:51.977Z,94670.97
2022-10-13T10:08:33.809Z,94664.38
2022-10-13T10:11:12.467Z,94669.38
2022-10-13T10:13:38.968Z,94664.91
2022-10-13T10:16:22.749Z,94663.09
2022-10-13T10:18:59.131Z,94658.03
2022-10-13T10:21:53.451Z,94664.97
2022-10-13T10:24:23.010Z,94669.28
2022-10-13T10:26:50.980Z,94667.56
2022-10-13T10:29:23.595Z,94668.81
2022-10-13T10:32:02.206Z,94670.84
2022-10-13T10:34:37.074Z,94670.06
2022-10-13T10:37:29.198Z,94669.00
2022-10-13T10:40:15.130Z,94663.03
2022-10-13T10:43:04.425Z,94661.06
2022-10-13T10:45:38.831Z,94660.31
2022-10-13T10:48:28.261Z,94661.25
2022-10-13T10:50:54.809Z,94656.31
2022-10-13T10:53:39.754Z,94644.47
2022-10-13T10:56:19.366Z,94648.22
2022-10-13T10:59:16.566Z,94637.06
2022-10-13T11:02:07.225Z,94636.19
2022-10-13T11:04:48.809Z,94638.34
2022-10-13T11:07:24.072Z,94636.94
2022-10-13T11:09:54.023Z,94626.72
2022-10-13T11:12:20.791Z,94622.81
2022-10-13T11:15:11.377Z,94616.75
2022-10-13T11:17:40.079Z,94626.50
2022-10-13T11:20:21.618Z,94614.56
2022-10-13T11:23:00.291Z,94605.44
2022-10-13T11:25:45.640Z,94608.19
2022-10-13T11:28:21.285Z,94614.38
2022-10-13T11:30:50.365Z,94606.09
2022-10-13T11:33:52.447Z,94603.78
2022-10-13T11:36:37.823Z,94600.06
2022-10-13T11:39:28.120Z,94597.94
2022-10-13T11:42:25.247Z,94592.69
2022-10-13T11:44:57.370Z,94591.56
2022-10-13T11:47:59.322Z,94585.25
2022-10-13T11:50:52.525Z,94579.81
2022-10-13T11:53:32.294Z,94568.41
2022-10-13T11:56:01.465Z,94583.81
2022-10-13T11:58:33.236Z,94576.72
2022-10-13T12:01:12.293Z,94584.75
2022-10-13T12:03:41.501Z,94572.66
2022-10-13T12:06:32.077Z,94563.56
2022-10-13T12:09:01.081Z,94558.16
2022-10-13T12:11:37.635Z,94560.47
2022-10-13T12:14:07.606Z,94555.66
2022-10-13T12:16:33.992Z,94546.38
2022-10-13T12:19:21.912Z,94548.69
2022-10-13T12:21:53.644Z,94546.06
2022-10-13T12:24:23.626Z,94545.94
2022-10-13T12:26:50.724Z,94546.09
2022-10-13T12:29:18.318Z,94532.19
2022-10-13T12:31:47.278Z,94532.63
2022-10-13T12:34:22.970Z,94534.03
2022-10-13T12:36:57.232Z,94543.00
2022-10-13T12:39:25.225Z,94537.75
2022-10-13T12:41:53.363Z,94543.63
2022-10-13T12:44:25.842Z,94542.09
2022-10-13T12:46:56.215Z,94543.63
2022-10-13T12:49:28.196Z,94537.47
2022-10-13T12:52:03.496Z,94545.03
2022-10-13T12:54:36.157Z,94545.81
2022-10-13T12:57:19.263Z,94545.34
2022-10-13T12:59:46.036Z,94539.56
2022-10-13T13:02:29.845Z,94538.47
2022-10-13T13:04:56.265Z,94535.22
2022-10-13T13:07:34.159Z,94532.84
2022-10-13T13:10:19.953Z,94522.03
2022-10-13T13:12:48.749Z,94517.25
2022-10-13T13:15:24.143Z,94529.00
2022-10-13T13:17:59.561Z,94518.22
2022-10-13T13:20:29.089Z,94523.34
2022-10-13T13:22:55.926Z,94518.69
2022-10-13T13:25:22.764Z,94521.47
2022-10-13T13:27:49.260Z,94512.81
2022-10-13T13:30:19.581Z,94519.28
2022-10-13T13:32:46.329Z,94513.72
2022-10-13T13:35:13.099Z,94505.97
2022-10-13T13:37:50.438Z,94504.69
2022-10-13T13:40:23.313Z,94502.31
2022-10-13T13:42:50.069Z,94495.78
2022-10-13T13:45:19.322Z,94494.53
2022-10-13T13:47:46.304Z,94496.28
2022-10-13T13:50:20.217Z,94489.69
2022-10-13T13:52:55.877Z,94489.25
2022-10-13T13:55:23.248Z,94500.47
2022-10-13T13:57:49.743Z,94500.72
2022-10-13T14:00:17.348Z,94499.41
2022-10-13T14:02:49.275Z,94488.84
2022-10-13T14:05:16.115Z,94491.50
2022-10-13T14:07:42.500Z,94501.69
2022-10-13T14:10:10.140Z,94487.44
2022-10-13T14:12:37.024Z,94480.53
2022-10-13T14:15:03.863Z,94477.66
2022-10-13T14:17:30.283Z,94478.72
2022-10-13T14:19:56.902Z,94480.47
2022-10-13T14:22:23.599Z,94486.91
2022-10-13T14:24:50.400Z,94483.88
2022-10-13T14:27:16.850Z,94477.13
2022-10-13T14:29:43.279Z,94477.75
2022-10-13T14:32:11.471Z,94483.94
2022-10-13T14:34:37.886Z,94489.50
2022-10-13T14:37:04.477Z,94490.31
2022-10-13T14:39:30.866Z,94493.13
2022-10-13T14:41:57.292Z,94482.72
2022-10-13T14:44:23.740Z,94486.00
2022-10-13T14:46:50.195Z,94483.75
2022-10-13T14:49:16.556Z,94490.81
2022-10-13T14:51:47.666Z,94487.34
2022-10-13T14:54:15.790Z,94483.84
2022-10-13T14:56:42.155Z,94482.38
2022-10-13T14:59:10.910Z,94481.66
2022-10-13T15:01:41.282Z,94478.78
2022-10-13T15:04:08.418Z,94480.19
2022-10-13T15:06:35.135Z,94476.84
2022-10-13T15:09:01.749Z,94478.88
2022-10-13T15:11:28.461Z,94480.28
2022-10-13T15:13:56.162Z,94481.66
2022-10-13T15:16:26.215Z,94474.94
2022-10-13T15:18:52.725Z,94473.09
2022-10-13T15:21:19.577Z,94471.56
2022-10-13T15:23:46.591Z,94467.56
2022-10-13T15:26:14.861Z,94469.63
2022-10-13T15:28:47.313Z,94466.88
2022-10-13T15:31:15.807Z,94456.84
2022-10-13T15:33:43.909Z,94478.16
2022-10-13T15:36:10.311Z,94465.97
2022-10-13T15:38:39.204Z,94465.38
2022-10-13T15:41:06.912Z,94462.47
2022-10-13T15:43:34.266Z,94478.88
2022-10-13T15:46:04.148Z,94473.78
2022-10-13T15:48:32.263Z,94479.19
2022-10-13T15:50:58.721Z,94486.34
2022-10-13T15:53:25.932Z,94480.03
2022-10-13T15:55:52.680Z,94486.19
2022-10-13T15:58:19.310Z,94485.28
2022-10-13T16:00:45.819Z,94477.56
2022-10-13T16:03:17.269Z,94470.19
2022-10-13T16:05:45.379Z,94474.16
2022-10-13T16:08:12.601Z,94470.16
2022-10-13T16:10:41.107Z,94466.59
2022-10-13T16:13:07.821Z,94466.75
2022-10-13T16:15:34.233Z,94468.47
2022-10-13T16:18:00.646Z,94483.00
2022-10-13T16:20:27.109Z,94474.19
2022-10-13T16:22:53.942Z,94479.25
2022-10-13T16:25:20.384Z,94481.88
2022-10-13T16:27:46.773Z,94481.88
2022-10-13T16:30:13.337Z,94487.78
2022-10-13T16:32:40.385Z,94477.41
2022-10-13T16:35:07.421Z,94476.34
2022-10-13T16:37:33.883Z,94473.56
2022-10-13T16:40:00.270Z,94476.50
2022-10-13T16:42:26.686Z,94475.28
2022-10-13T16:44:53.049Z,94475.56
2022-10-13T16:47:19.420Z,94473.25
2022-10-13T16:49:46.845Z,94472.31
2022-10-13T16:52:14.568Z,94482.69
2022-10-13T16:54:43.582Z,94474.66
2022-10-13T16:57:09.937Z,94480.19
2022-10-13T16:59:36.305Z,94478.66
2022-10-13T17:02:03.016Z,94481.56
2022-10-13T17:04:31.041Z,94467.84
2022-10-13T17:06:57.524Z,94480.81
2022-10-13T17:09:23.906Z,94474.03
2022-10-13T17:11:50.273Z,94484.50
2022-10-13T17:14:16.627Z,94486.19
2022-10-13T17:16:44.067Z,94482.81
2022-10-13T17:19:10.457Z,94480.47
2022-10-13T17:21:36.924Z,94479.72
2022-10-13T17:24:05.286Z,94490.19
2022-10-13T17:26:32.951Z,94489.28
2022-10-13T17:28:59.500Z,94477.56
2022-10-13T17:31:25.892Z,94476.00
2022-10-13T17:33:53.121Z,94491.72
2022-10-13T17:36:25.917Z,94487.56
2022-10-13T17:38:55.014Z,94477.72
2022-10-13T17:41:22.485Z,94473.06
2022-10-13T17:43:50.674Z,94484.78
2022-10-13T17:49:07.573Z,94469.50
2022-10-13T17:51:34.188Z,94478.31
2022-10-13T17:54:01.005Z,94476.75
2022-10-13T17:56:27.945Z,94480.00
2022-10-13T17:58:54.836Z,94482.75
2022-10-13T18:01:30.219Z,94476.91
2022-10-13T18:04:02.860Z,94483.69
2022-10-13T18:06:36.778Z,94488.91
2022-10-13T18:09:09.798Z,94474.13
2022-10-13T18:11:36.897Z,94475.19
2022-10-13T18:14:03.908Z,94477.97
2022-10-13T18:16:30.477Z,94477.19
2022-10-13T18:18:56.974Z,94479.06
2022-10-13T18:21:26.815Z,94489.06
2022-10-13T18:23:55.626Z,94478.72
2022-10-13T18:26:22.621Z,94482.72
2022-10-13T18:28:50.181Z,94477.31
2022-10-13T18:31:20.325Z,94475.78
2022-10-13T18:33:50.037Z,94475.78
2022-10-13T18:36:16.889Z,94474.25
2022-10-13T18:38:43.748Z,94471.34
2022-10-13T18:41:10.185Z,94473.63
2022-10-13T18:43:36.571Z,94477.31
2022-10-13T18:46:04.758Z,94472.06
2022-10-13T18:48:32.671Z,94470.84
2022-10-13T18:51:10.704Z,94477.00
2022-10-13T18:53:39.003Z,94478.97
2022-10-13T18:56:08.380Z,94485.59
2022-10-13T18:58:35.431Z,94480.94
2022-10-13T19:01:03.404Z,94473.69
2022-10-13T19:03:32.048Z,94479.38
2022-10-13T19:05:59.087Z,94474.28
2022-10-13T19:08:26.447Z,94463.34
2022-10-13T19:10:52.798Z,94475.53
2022-10-13T19:13:19.171Z,94460.13
2022-10-13T19:15:46.012Z,94459.81
2022-10-13T19:18:12.921Z,94468.44
2022-10-13T19:20:40.861Z,94462.75
2022-10-13T19:23:07.342Z,94460.72
2022-10-13T19:25:33.842Z,94459.34
2022-10-13T19:28:00.259Z,94460.91
2022-10-13T19:30:26.850Z,94463.22
2022-10-13T19:32:53.861Z,94456.91
2022-10-13T19:35:20.320Z,94464.28
2022-10-13T19:37:46.709Z,94460.13
2022-10-13T19:40:13.076Z,94459.66
2022-10-13T19:42:39.457Z,94463.34
2022-10-13T19:45:06.730Z,94461.50
2022-10-13T19:47:33.240Z,94451.47
2022-10-13T19:49:59.610Z,94471.34
2022-10-13T19:52:26.164Z,94460.69
2022-10-13T19:54:52.588Z,94467.31
2022-10-13T19:57:19.494Z,94464.97
2022-10-13T19:59:47.844Z,94464.53
2022-10-13T20:02:14.583Z,94465.13
2022-10-13T20:04:41.125Z,94459.59
2022-10-13T20:07:07.531Z,94465.63
2022-10-13T20:09:34.391Z,94473.16
2022-10-13T20:12:00.837Z,94459.59
2022-10-13T20:14:27.217Z,94458.03
2022-10-13T20:16:56.348Z,94462.50
2022-10-13T20:19:22.697Z,94463.75
2022-10-13T20:21:51.580Z,94454.38
2022-10-13T20:24:19.091Z,94452.81
2022-10-13T20:26:45.543Z,94454.97
2022-10-13T20:29:12.147Z,94462.81
2022-10-13T20:31:38.595Z,94469.13
2022-10-13T20:34:05.079Z,94464.97
2022-10-13T20:36:37.505Z,94468.34
2022-10-13T20:39:05.099Z,94464.47
2022-10-13T20:41:33.111Z,94470.31
2022-10-13T20:44:00.611Z,94478.66
2022-10-13T20:46:29.573Z,94474.97
2022-10-13T20:49:12.876Z,94468.00
2022-10-13T20:51:40.560Z,94477.56
2022-10-13T20:54:07.608Z,94481.75
2022-10-13T20:56:34.191Z,94470.31
2022-10-13T20:59:10.056Z,94478.34
2022-10-13T21:01:37.166Z,94479.44
2022-10-13T21:04:04.480Z,94478.66
2022-10-13T21:06:31.077Z,94471.88
2022-10-13T21:08:59.963Z,94479.88
2022-10-13T21:11:26.340Z,94479.25
2022-10-13T21:13:53.071Z,94482.75
2022-10-13T21:16:22.480Z,94478.63
2022-10-13T21:18:51.005Z,94489.88
2022-10-13T21:21:22.554Z,94487.84
2022-10-13T21:23:58.124Z,94482.44
2022-10-13T21:26:26.079Z,94480.72
2022-10-13T21:28:52.968Z,94485.47
2022-10-13T21:31:21.568Z,94468.66
2022-10-13T21:33:48.872Z,94474.66
2022-10-13T21:36:18.886Z,94484.66
2022-10-13T21:38:46.284Z,94480.63
2022-10-13T21:41:14.144Z,94484.31
2022-10-13T21:43:40.720Z,94485.84
2022-10-13T21:46:20.512Z,94490.03
2022-10-13T21:48:54.637Z,94489.97
2022-10-13T21:51:31.095Z,94478.25
2022-10-13T21:54:09.414Z,94493.84
2022-10-13T21:56:36.960Z,94483.97
2022-10-13T21:59:03.701Z,94482.41
2022-10-13T22:01:30.514Z,94493.97
2022-10-13T22:03:59.724Z,94484.69
2022-10-13T22:06:26.910Z,94493.00
2022-10-13T22:08:55.200Z,94491.44
2022-10-13T22:11:24.465Z,94492.53
2022-10-13T22:13:51.021Z,94484.50
2022-10-13T22:16:26.947Z,94494.66
2022-10-13T22:18:55.626Z,94485.84
2022-10-13T22:21:29.953Z,94489.53
2022-10-13T22:24:02.096Z,94495.06
2022-10-13T22:26:30.443Z,94486.44
2022-10-13T22:28:57.836Z,94495.84
2022-10-13T22:31:24.265Z,94489.84
2022-10-13T22:33:53.538Z,94486.44
2022-10-13T22:36:22.417Z,94485.22
2022-10-13T22:38:50.241Z,94485.00
2022-10-13T22:41:18.823Z,94486.69
2022-10-13T22:43:49.871Z,94487.28
2022-10-13T22:46:18.105Z,94489.44
2022-10-13T22:48:44.958Z,94490.78
2022-10-13T22:51:15.933Z,94490.84
2022-10-13T22:53:42.391Z,94490.97
2022-10-13T22:56:11.893Z,94488.94
2022-10-13T22:58:38.902Z,94487.69
2022-10-13T23:01:12.950Z,94500.78
2022-10-13T23:03:39.810Z,94493.03
2022-10-13T23:06:08.261Z,94495.19
2022-10-13T23:08:35.197Z,94486.38
2022-10-13T23:11:01.588Z,94483.75
2022-10-13T23:13:28.004Z,94481.72
2022-10-13T23:16:08.917Z,94494.78
2022-10-13T23:18:37.545Z,94483.88
2022-10-13T23:21:08.367Z,94486.22
2022-10-13T23:23:35.091Z,94489.09
2022-10-13T23:26:10.869Z,94497.72
2022-10-13T23:28:37.808Z,94487.84
2022-10-13T23:31:08.102Z,94486.00
2022-10-13T23:33:34.736Z,94485.22
2022-10-13T23:36:02.477Z,94486.59
2022-10-13T23:38:30.691Z,94485.16
2022-10-13T23:41:08.917Z,94492.03
2022-10-13T23:43:36.049Z,94482.66
2022-10-13T23:46:03.440Z,94485.72
2022-10-13T23:48:29.808Z,94489.44
2022-10-13T23:50:56.522Z,94475.13
2022-10-13T23:53:23.129Z,94478.19
2022-10-13T23:55:49.557Z,94472.97
2022-10-13T23:58:15.949Z,94477.91
